Time;durP1;ratioP1;P1;durP2;ratioP2;P2;SDS_P1;SDS_P2;PMS_P1;PMS_P2;Temp;Humidity;BMP_temperature;BMP_pressure;BME280_temperature;BME280_humidity;BME280_pressure;Samples;Min_cycle;Max_cycle;Signal;HPM_P1;HPM_P2
2023/07/25 00:01:57;;;;;;;18.83;3.13;;;44.50;30.40;;;;;;5050264;28;20017;-58
2023/07/25 00:04:23;;;;;;;22.13;2.67;;;44.40;30.80;;;;;;5049864;28;20497;-56
2023/07/25 00:06:50;;;;;;;15.85;3.05;;;44.20;31.20;;;;;;5049038;28;20020;-56
2023/07/25 00:09:16;;;;;;;10.50;2.10;;;44.10;32.10;;;;;;5042599;28;20104;-57
2023/07/25 00:11:44;;;;;;;18.80;2.95;;;43.90;31.70;;;;;;5042549;28;20502;-57
2023/07/25 00:14:10;;;;;;;10.98;2.40;;;43.80;32.80;;;;;;5049961;28;20029;-61
2023/07/25 00:16:37;;;;;;;11.32;2.75;;;43.70;33.10;;;;;;5048045;28;20067;-59
2023/07/25 00:19:03;;;;;;;15.35;2.58;;;43.50;31.90;;;;;;5047780;28;20494;-59
2023/07/25 00:21:29;;;;;;;14.25;2.47;;;43.40;32.00;;;;;;5046953;28;20127;-58
2023/07/25 00:23:56;;;;;;;9.60;2.42;;;43.30;32.40;;;;;;5082401;22;20008;-57
2023/07/25 00:26:22;;;;;;;17.13;2.30;;;43.20;32.80;;;;;;5065987;28;20075;-56
2023/07/25 00:28:49;;;;;;;11.10;2.28;;;43.20;32.80;;;;;;5066614;28;20066;-59
2023/07/25 00:31:15;;;;;;;15.45;2.30;;;43.20;32.90;;;;;;5061207;28;20008;-59
2023/07/25 00:33:41;;;;;;;12.60;2.45;;;43.20;32.70;;;;;;5057111;28;20009;-61
2023/07/25 00:36:08;;;;;;;10.95;2.55;;;43.20;32.90;;;;;;5056440;28;20030;-61
2023/07/25 00:38:34;;;;;;;4.93;1.92;;;43.20;33.10;;;;;;5053587;28;20023;-63
2023/07/25 00:41:01;;;;;;;18.73;2.20;;;43.10;33.20;;;;;;5056571;28;20020;-57
2023/07/25 00:43:27;;;;;;;10.73;2.25;;;43.00;32.10;;;;;;5057123;28;20016;-58
2023/07/25 00:45:53;;;;;;;10.52;2.55;;;43.00;33.10;;;;;;5061716;28;20020;-60
2023/07/25 00:48:20;;;;;;;5.68;2.22;;;42.90;32.50;;;;;;5060894;28;20390;-59
2023/07/25 00:50:46;;;;;;;10.07;2.70;;;43.00;32.10;;;;;;5064634;28;20056;-59
2023/07/25 00:53:14;;;;;;;8.57;2.10;;;43.10;32.50;;;;;;5062196;28;20027;-53
2023/07/25 00:55:41;;;;;;;8.95;1.88;;;43.10;32.10;;;;;;5061726;28;20508;-56
2023/07/25 00:58:07;;;;;;;8.60;1.95;;;43.10;31.40;;;;;;5060586;28;20090;-57
2023/07/25 01:00:33;;;;;;;15.48;2.00;;;43.10;32.00;;;;;;5060375;28;20009;-56
2023/07/25 01:03:00;;;;;;;13.05;3.10;;;43.10;32.00;;;;;;5059305;28;20013;-55
2023/07/25 01:05:28;;;;;;;11.15;2.33;;;43.10;31.80;;;;;;5059616;28;20355;-53
2023/07/25 01:07:55;;;;;;;14.25;3.50;;;43.20;31.20;;;;;;5058836;28;20028;-56
2023/07/25 01:10:22;;;;;;;11.63;3.78;;;43.20;32.20;;;;;;5061181;28;20051;-54
2023/07/25 01:12:48;;;;;;;10.38;2.53;;;43.20;32.30;;;;;;5061304;28;20470;-56
2023/07/25 01:15:15;;;;;;;10.75;1.95;;;43.10;32.30;;;;;;5061692;28;20126;-52
2023/07/25 01:17:41;;;;;;;10.27;2.20;;;43.10;32.30;;;;;;5064332;28;20453;-53
2023/07/25 01:20:08;;;;;;;8.07;2.28;;;43.10;32.10;;;;;;5062516;28;20016;-52
2023/07/25 01:22:36;;;;;;;9.85;1.98;;;43.10;33.10;;;;;;5060386;28;20101;-52
2023/07/25 01:25:03;;;;;;;13.13;2.20;;;43.10;32.20;;;;;;5058724;28;20031;-59
2023/07/25 01:27:29;;;;;;;11.57;2.20;;;42.90;32.70;;;;;;5061536;28;20050;-57
2023/07/25 01:29:56;;;;;;;13.18;2.67;;;42.90;32.00;;;;;;5061130;28;20013;-58
2023/07/25 01:32:22;;;;;;;18.38;3.05;;;42.90;32.40;;;;;;5060774;28;22206;-56
2023/07/25 01:34:49;;;;;;;10.48;2.50;;;42.80;34.00;;;;;;5060699;28;20023;-56
2023/07/25 01:37:16;;;;;;;8.63;2.40;;;42.70;33.40;;;;;;5062164;28;20056;-54
2023/07/25 01:39:43;;;;;;;13.10;3.08;;;42.60;33.00;;;;;;5060716;28;20017;-55
2023/07/25 01:42:10;;;;;;;10.77;3.00;;;42.60;33.90;;;;;;5059752;28;20017;-56
2023/07/25 01:44:36;;;;;;;8.85;2.40;;;42.50;33.20;;;;;;5058025;28;20013;-56
2023/07/25 01:47:03;;;;;;;9.93;1.98;;;42.40;32.70;;;;;;5059909;28;20097;-51
2023/07/25 01:49:29;;;;;;;11.80;2.47;;;42.30;32.70;;;;;;5062543;28;20507;-53
2023/07/25 01:52:14;;;;;;;10.98;2.22;;;42.30;32.90;;;;;;5062425;28;20047;-59
2023/07/25 01:54:40;;;;;;;11.93;2.45;;;42.20;32.80;;;;;;5059451;28;20060;-56
2023/07/25 01:57:07;;;;;;;9.55;2.17;;;42.10;33.10;;;;;;5058714;28;20052;-60
2023/07/25 01:59:33;;;;;;;6.93;1.75;;;42.00;33.30;;;;;;5061248;28;20115;-60
2023/07/25 02:02:00;;;;;;;12.27;2.20;;;41.90;33.80;;;;;;5060742;28;20128;-56
2023/07/25 02:04:26;;;;;;;7.95;2.42;;;41.80;33.30;;;;;;5059401;28;20060;-60
2023/07/25 02:06:52;;;;;;;5.80;1.92;;;41.80;33.30;;;;;;5058089;28;20046;-57
2023/07/25 02:09:19;;;;;;;9.77;2.20;;;41.70;33.20;;;;;;5060371;28;20021;-56
2023/07/25 02:11:45;;;;;;;6.75;1.75;;;41.80;33.30;;;;;;5059276;28;20054;-54
2023/07/25 02:14:12;;;;;;;11.40;2.45;;;41.70;33.30;;;;;;5061498;28;20050;-55
2023/07/25 02:16:39;;;;;;;13.35;2.25;;;41.70;33.00;;;;;;5057423;28;20402;-58
2023/07/25 02:19:06;;;;;;;10.43;2.30;;;41.60;33.10;;;;;;5061338;28;20012;-54
2023/07/25 02:21:33;;;;;;;8.77;2.25;;;41.60;33.40;;;;;;5062197;28;20047;-51
2023/07/25 02:24:00;;;;;;;15.68;2.47;;;41.40;33.50;;;;;;5061442;28;20382;-57
2023/07/25 02:26:27;;;;;;;10.73;2.25;;;41.40;33.50;;;;;;5060563;28;20070;-55
2023/07/25 02:28:53;;;;;;;9.10;2.33;;;41.30;33.90;;;;;;5060199;28;20656;-53
2023/07/25 02:31:19;;;;;;;12.88;2.20;;;41.20;34.20;;;;;;5059581;28;20047;-51
2023/07/25 02:33:46;;;;;;;11.07;2.63;;;41.20;34.00;;;;;;5060007;28;20051;-51
2023/07/25 02:36:12;;;;;;;12.32;2.67;;;41.10;34.10;;;;;;5058154;28;20658;-51
2023/07/25 02:38:39;;;;;;;13.32;2.70;;;41.00;34.10;;;;;;5062399;28;20394;-56
2023/07/25 02:41:06;;;;;;;24.00;4.65;;;40.90;34.40;;;;;;5060824;28;20040;-55
2023/07/25 02:43:32;;;;;;;17.33;3.75;;;40.80;38.20;;;;;;5058325;28;20793;-55
2023/07/25 02:45:59;;;;;;;13.88;2.72;;;40.60;36.80;;;;;;5061309;28;20053;-50
2023/07/25 02:48:25;;;;;;;14.13;2.88;;;40.50;37.30;;;;;;5063655;28;20588;-52
2023/07/25 02:50:51;;;;;;;12.05;2.58;;;40.40;35.50;;;;;;5066930;28;20105;-55
2023/07/25 02:53:18;;;;;;;16.67;3.08;;;40.30;35.20;;;;;;5061568;28;20061;-53
2023/07/25 02:55:44;;;;;;;27.77;4.10;;;40.30;35.80;;;;;;5065805;28;20564;-59
2023/07/25 02:58:12;;;;;;;16.98;3.47;;;40.10;38.00;;;;;;5065022;28;20054;-56
2023/07/25 03:00:39;;;;;;;14.00;3.28;;;40.10;37.10;;;;;;5062435;28;20051;-57
2023/07/25 03:03:05;;;;;;;15.05;3.13;;;40.00;36.90;;;;;;5062072;28;20053;-59
2023/07/25 03:05:32;;;;;;;14.38;4.30;;;39.90;36.90;;;;;;5062354;28;20058;-58
2023/07/25 03:07:58;;;;;;;13.93;3.35;;;39.90;36.00;;;;;;5062098;28;20051;-58
2023/07/25 03:10:25;;;;;;;7.90;2.78;;;39.80;35.00;;;;;;5063626;28;20399;-55
2023/07/25 03:12:52;;;;;;;12.10;2.22;;;39.80;34.50;;;;;;5062831;28;20448;-57
2023/07/25 03:15:20;;;;;;;16.15;2.75;;;39.70;34.50;;;;;;5064081;28;20052;-56
2023/07/25 03:17:47;;;;;;;12.75;2.85;;;39.70;34.30;;;;;;5063715;28;20045;-57
2023/07/25 03:20:14;;;;;;;21.05;2.63;;;39.70;34.20;;;;;;5065218;28;20055;-57
2023/07/25 03:22:40;;;;;;;11.07;2.92;;;39.70;34.60;;;;;;5063070;28;20460;-57
2023/07/25 03:25:07;;;;;;;12.73;2.92;;;39.60;34.50;;;;;;5066344;28;20066;-57
2023/07/25 03:27:33;;;;;;;18.38;2.78;;;39.60;34.70;;;;;;5065041;28;20061;-54
2023/07/25 03:30:00;;;;;;;20.42;3.10;;;39.50;34.80;;;;;;5065060;28;20069;-59
2023/07/25 03:32:26;;;;;;;25.45;3.72;;;39.50;35.10;;;;;;5064085;28;20064;-58
2023/07/25 03:34:53;;;;;;;26.13;3.50;;;39.50;35.30;;;;;;5065980;28;20070;-56
2023/07/25 03:37:19;;;;;;;17.30;3.33;;;39.40;35.50;;;;;;5064966;28;20087;-53
2023/07/25 03:39:45;;;;;;;24.77;3.53;;;39.30;35.60;;;;;;5065288;28;20081;-57
2023/07/25 03:42:12;;;;;;;27.02;3.72;;;39.30;36.00;;;;;;5063567;28;20147;-60
2023/07/25 03:44:38;;;;;;;18.35;3.10;;;39.20;36.30;;;;;;5064016;28;20102;-60
2023/07/25 03:47:05;;;;;;;33.65;4.85;;;39.20;36.40;;;;;;5064157;28;20055;-66
2023/07/25 03:49:31;;;;;;;41.15;4.70;;;39.10;36.60;;;;;;5064428;28;20066;-54
2023/07/25 03:51:58;;;;;;;27.25;4.38;;;39.00;36.80;;;;;;5064334;28;20149;-58
2023/07/25 03:54:25;;;;;;;31.70;4.47;;;38.90;37.20;;;;;;5063167;28;20583;-60
2023/07/25 03:56:52;;;;;;;26.58;4.20;;;38.90;37.50;;;;;;5063569;28;20123;-59
2023/07/25 03:59:19;;;;;;;29.13;3.97;;;38.80;37.60;;;;;;5061412;28;20152;-55
2023/07/25 04:01:45;;;;;;;30.88;4.03;;;38.80;37.60;;;;;;5065442;28;20075;-57
2023/07/25 04:04:11;;;;;;;27.02;4.55;;;38.70;37.50;;;;;;5060407;28;20072;-59
2023/07/25 04:06:38;;;;;;;32.33;4.75;;;38.70;37.70;;;;;;5057380;28;20069;-57
2023/07/25 04:09:05;;;;;;;30.98;4.50;;;38.70;37.90;;;;;;5059127;28;20065;-57
2023/07/25 04:11:31;;;;;;;25.83;4.45;;;38.70;38.30;;;;;;5063737;28;20560;-57
2023/07/25 04:13:58;;;;;;;48.17;7.20;;;38.60;38.40;;;;;;5064001;28;20058;-56
2023/07/25 04:16:24;;;;;;;62.92;7.18;;;38.60;38.00;;;;;;5061668;28;20564;-58
2023/07/25 04:18:51;;;;;;;39.33;6.53;;;38.60;38.10;;;;;;5059432;28;20065;-57
2023/07/25 04:21:17;;;;;;;39.67;5.65;;;38.60;37.60;;;;;;5065635;28;20098;-54
2023/07/25 04:23:44;;;;;;;35.95;6.25;;;38.70;37.20;;;;;;5059089;28;20515;-57
2023/07/25 04:26:10;;;;;;;48.08;7.45;;;38.80;37.10;;;;;;5060607;28;20160;-57
2023/07/25 04:28:37;;;;;;;46.55;6.60;;;38.80;37.40;;;;;;5057199;28;20073;-55
2023/07/25 04:31:03;;;;;;;34.42;6.35;;;38.90;37.40;;;;;;5059869;28;20056;-55
2023/07/25 04:33:29;;;;;;;36.20;5.75;;;38.90;37.90;;;;;;5063017;28;20067;-56
2023/07/25 04:35:56;;;;;;;32.83;5.82;;;38.80;37.90;;;;;;5060810;28;20086;-55
2023/07/25 04:38:22;;;;;;;54.25;7.70;;;38.80;38.10;;;;;;5059309;28;20068;-58
2023/07/25 04:40:48;;;;;;;66.90;8.88;;;38.80;38.30;;;;;;5060336;28;20046;-56
2023/07/25 04:43:15;;;;;;;51.58;6.82;;;38.70;38.60;;;;;;5063616;28;20580;-57
2023/07/25 04:45:41;;;;;;;39.80;6.63;;;38.60;38.60;;;;;;5062242;28;20059;-57
2023/07/25 04:48:08;;;;;;;29.45;6.25;;;38.60;38.50;;;;;;5062368;28;21393;-57
2023/07/25 04:50:34;;;;;;;29.10;6.03;;;38.60;38.90;;;;;;5061144;28;20096;-56
2023/07/25 04:53:01;;;;;;;30.33;5.30;;;38.50;38.60;;;;;;5062083;28;20062;-59
2023/07/25 04:55:27;;;;;;;24.50;5.57;;;38.60;39.10;;;;;;5061406;28;20088;-53
2023/07/25 04:57:55;;;;;;;30.50;6.30;;;38.50;38.90;;;;;;5061616;28;20091;-56
2023/07/25 05:00:21;;;;;;;31.13;6.22;;;38.50;39.40;;;;;;5062363;28;20089;-53
2023/07/25 05:02:48;;;;;;;32.50;6.10;;;38.50;38.80;;;;;;5062413;28;20142;-52
2023/07/25 05:05:14;;;;;;;34.90;8.40;;;38.50;38.90;;;;;;5060839;28;20586;-52
2023/07/25 05:07:40;;;;;;;36.08;9.63;;;38.50;38.90;;;;;;5060963;28;20066;-58
2023/07/25 05:10:07;;;;;;;42.85;10.38;;;38.40;38.20;;;;;;5058001;28;20086;-57
2023/07/25 05:12:34;;;;;;;41.50;8.88;;;38.40;38.00;;;;;;5065167;28;20051;-58
2023/07/25 05:15:00;;;;;;;46.20;9.35;;;38.40;37.80;;;;;;5061280;28;20058;-55
2023/07/25 05:17:39;;;;;;;63.10;10.43;;;38.40;37.50;;;;;;5059858;28;20165;-54
2023/07/25 05:20:06;;;;;;;43.13;9.85;;;38.40;37.20;;;;;;5071903;28;20068;-60
2023/07/25 05:22:33;;;;;;;39.00;10.20;;;38.40;37.40;;;;;;5060248;28;20060;-55
2023/07/25 05:24:59;;;;;;;56.05;9.55;;;38.30;37.60;;;;;;5061508;28;20080;-55
2023/07/25 05:27:26;;;;;;;66.07;9.05;;;38.30;38.00;;;;;;5060146;28;20580;-58
2023/07/25 05:29:52;;;;;;;38.90;7.63;;;38.30;38.60;;;;;;5062349;28;20061;-54
2023/07/25 05:32:21;;;;;;;39.22;7.13;;;38.20;38.50;;;;;;5062956;28;20068;-55
2023/07/25 05:34:48;;;;;;;54.20;8.20;;;38.20;38.30;;;;;;5062949;28;20071;-52
2023/07/25 05:37:17;;;;;;;52.33;8.10;;;38.10;38.40;;;;;;5062095;28;20145;-55
2023/07/25 05:39:43;;;;;;;41.67;6.63;;;38.10;38.60;;;;;;5059435;28;20061;-52
2023/07/25 05:42:09;;;;;;;45.55;7.35;;;38.00;38.40;;;;;;5056907;28;20063;-56
2023/07/25 05:44:36;;;;;;;54.70;7.53;;;38.00;38.40;;;;;;5060610;28;20571;-57
2023/07/25 05:47:05;;;;;;;37.65;6.60;;;37.90;38.50;;;;;;5060449;28;20073;-53
2023/07/25 05:49:31;;;;;;;42.90;7.32;;;37.80;38.10;;;;;;5056028;28;20467;-56
2023/07/25 05:51:58;;;;;;;28.33;6.13;;;37.80;38.00;;;;;;5060721;28;20067;-52
2023/07/25 05:54:24;;;;;;;40.45;6.97;;;37.70;38.00;;;;;;5058919;28;20082;-55
2023/07/25 05:56:50;;;;;;;44.65;10.43;;;37.70;38.10;;;;;;5061167;28;20440;-56
2023/07/25 05:59:17;;;;;;;47.05;7.82;;;37.60;38.00;;;;;;5056984;28;20063;-53
2023/07/25 06:01:43;;;;;;;37.47;7.38;;;37.60;38.50;;;;;;5062487;28;20082;-55
2023/07/25 06:04:13;;;;;;;27.50;7.35;;;37.50;38.60;;;;;;5059585;28;20533;-51
2023/07/25 06:06:40;;;;;;;29.98;8.30;;;37.50;38.90;;;;;;5061290;28;20079;-54
2023/07/25 06:09:06;;;;;;;24.50;6.68;;;37.40;38.60;;;;;;5059513;28;20070;-55
2023/07/25 06:11:32;;;;;;;24.02;6.32;;;37.40;38.60;;;;;;5059256;28;20436;-51
2023/07/25 06:13:59;;;;;;;19.73;5.63;;;37.40;38.90;;;;;;5058292;28;20091;-53
2023/07/25 06:16:25;;;;;;;25.38;6.82;;;37.20;38.70;;;;;;5059137;28;20530;-57
2023/07/25 06:18:52;;;;;;;26.23;6.40;;;37.20;39.80;;;;;;5061888;28;20069;-49
2023/07/25 06:21:22;;;;;;;26.83;6.63;;;37.20;40.60;;;;;;5062807;28;20072;-53
2023/07/25 06:23:48;;;;;;;40.38;7.13;;;37.10;40.10;;;;;;5060095;28;20534;-53
2023/07/25 06:26:15;;;;;;;34.38;6.65;;;37.10;40.80;;;;;;5065127;28;20098;-51
2023/07/25 06:28:42;;;;;;;46.00;7.18;;;37.00;42.10;;;;;;5065774;28;20065;-55
2023/07/25 06:31:08;;;;;;;31.80;6.68;;;36.90;41.10;;;;;;5066262;28;20177;-54
2023/07/25 06:33:35;;;;;;;29.35;6.68;;;36.90;41.30;;;;;;5062625;28;20073;-47
2023/07/25 06:36:01;;;;;;;26.55;5.90;;;36.80;40.60;;;;;;5063358;28;20088;-54
2023/07/25 06:38:28;;;;;;;21.98;6.18;;;36.80;40.70;;;;;;5064897;28;20077;-53
2023/07/25 06:40:54;;;;;;;24.33;5.75;;;36.70;42.50;;;;;;5064167;28;20082;-52
2023/07/25 06:43:21;;;;;;;18.63;5.60;;;36.70;41.50;;;;;;5063619;28;20097;-51
2023/07/25 06:45:50;;;;;;;23.30;6.13;;;36.70;42.50;;;;;;5047113;28;20097;-52
2023/07/25 06:48:17;;;;;;;27.00;6.10;;;36.60;41.40;;;;;;5063252;28;20084;-52
2023/07/25 06:50:44;;;;;;;22.65;5.47;;;36.50;40.90;;;;;;5065662;28;20075;-54
2023/07/25 06:53:10;;;;;;;17.95;5.70;;;36.50;40.40;;;;;;5062442;28;20085;-53
2023/07/25 06:55:38;;;;;;;16.42;5.38;;;36.50;39.90;;;;;;5063891;28;20075;-56
2023/07/25 06:58:05;;;;;;;19.98;5.13;;;36.50;39.50;;;;;;5064203;28;20105;-52
2023/07/25 07:00:34;;;;;;;19.48;4.40;;;36.50;39.20;;;;;;5065871;28;20069;-51
2023/07/25 07:03:00;;;;;;;20.58;4.95;;;36.40;39.20;;;;;;5064077;28;20167;-53
2023/07/25 07:05:27;;;;;;;17.45;4.50;;;36.40;38.50;;;;;;5065636;28;20070;-54
2023/07/25 07:07:53;;;;;;;19.35;5.00;;;36.40;38.00;;;;;;5065064;28;20080;-54
2023/07/25 07:10:19;;;;;;;15.30;5.03;;;36.40;39.40;;;;;;5064120;28;20067;-52
2023/07/25 07:12:47;;;;;;;20.00;4.72;;;36.40;38.30;;;;;;5065530;28;20082;-51
2023/07/25 07:15:14;;;;;;;11.27;3.92;;;36.30;38.00;;;;;;5063244;28;20431;-53
2023/07/25 07:17:42;;;;;;;11.55;3.97;;;36.30;37.60;;;;;;5063213;28;20086;-54
2023/07/25 07:20:09;;;;;;;16.42;3.78;;;36.30;37.30;;;;;;5066103;28;20158;-52
2023/07/25 07:22:35;;;;;;;16.42;4.00;;;36.30;37.50;;;;;;5066972;28;20976;-54
2023/07/25 07:25:02;;;;;;;11.65;3.35;;;36.20;37.00;;;;;;5066852;28;20075;-50
2023/07/25 07:27:28;;;;;;;13.77;3.20;;;36.20;37.20;;;;;;5063658;28;20118;-54
2023/07/25 07:29:54;;;;;;;13.13;3.80;;;36.20;35.60;;;;;;5066953;28;20090;-52
2023/07/25 07:32:21;;;;;;;11.80;2.80;;;36.20;36.20;;;;;;5063216;28;20455;-55
2023/07/25 07:34:47;;;;;;;8.68;2.30;;;36.20;36.00;;;;;;5063192;28;20428;-55
2023/07/25 07:37:14;;;;;;;12.38;3.72;;;36.20;36.30;;;;;;5061356;28;20572;-52
2023/07/25 07:39:41;;;;;;;6.43;2.92;;;36.10;36.10;;;;;;5062951;28;20070;-51
2023/07/25 07:42:08;;;;;;;8.98;3.15;;;36.10;35.90;;;;;;5061954;28;20111;-55
2023/07/25 07:44:34;;;;;;;10.27;2.92;;;36.10;36.50;;;;;;5061350;28;20079;-52
2023/07/25 07:47:01;;;;;;;5.82;2.95;;;36.00;36.30;;;;;;5062093;28;20093;-54
2023/07/25 07:49:27;;;;;;;8.23;2.85;;;36.00;35.60;;;;;;5062342;28;20086;-48
2023/07/25 07:51:53;;;;;;;9.05;2.72;;;36.00;35.00;;;;;;5059667;28;20078;-52
2023/07/25 07:54:20;;;;;;;5.65;2.38;;;36.00;35.20;;;;;;5061971;28;20131;-52
2023/07/25 07:56:46;;;;;;;6.00;2.80;;;35.90;35.50;;;;;;5063260;28;20101;-50
2023/07/25 07:59:12;;;;;;;8.93;3.15;;;35.90;36.60;;;;;;5057215;28;20564;-51
2023/07/25 08:01:39;;;;;;;6.60;2.58;;;35.80;36.30;;;;;;5064534;28;20080;-56
2023/07/25 08:04:05;;;;;;;8.20;3.05;;;35.80;37.40;;;;;;5060046;28;20149;-54
2023/07/25 08:06:32;;;;;;;8.55;3.22;;;35.80;37.50;;;;;;5063585;28;20574;-54
2023/07/25 08:08:58;;;;;;;10.77;3.30;;;36.30;36.90;;;;;;5063265;28;20071;-58
2023/07/25 08:11:25;;;;;;;8.40;2.63;;;36.60;36.60;;;;;;5061929;28;20078;-64
2023/07/25 08:13:51;;;;;;;9.95;3.10;;;36.80;36.50;;;;;;5060881;28;20116;-54
2023/07/25 08:16:18;;;;;;;10.43;3.50;;;36.70;36.90;;;;;;5062550;28;20545;-58
2023/07/25 08:18:44;;;;;;;9.50;2.92;;;36.90;37.70;;;;;;5063313;28;20061;-55
2023/07/25 08:21:10;;;;;;;9.15;2.72;;;36.80;36.80;;;;;;5065410;28;20549;-60
2023/07/25 08:23:37;;;;;;;13.20;3.20;;;36.90;36.60;;;;;;5061650;28;20479;-58
2023/07/25 08:26:03;;;;;;;5.80;2.63;;;37.00;36.60;;;;;;5056998;28;20091;-59
2023/07/25 08:28:29;;;;;;;10.15;2.95;;;37.00;36.60;;;;;;5057656;28;20147;-56
2023/07/25 08:31:00;;;;;;;8.23;3.40;;;37.00;36.50;;;;;;5052995;28;20140;-56
2023/07/25 08:33:33;;;;;;;10.07;3.13;;;36.90;35.90;;;;;;5057486;28;20077;-56
2023/07/25 08:35:59;;;;;;;9.50;3.70;;;36.90;36.70;;;;;;5055156;28;20081;-54
2023/07/25 08:38:26;;;;;;;11.93;3.10;;;36.90;36.20;;;;;;5060061;28;20468;-57
2023/07/25 08:41:04;;;;;;;9.00;3.13;;;36.90;36.20;;;;;;5062811;28;20067;-52
2023/07/25 08:43:37;;;;;;;10.27;3.40;;;36.80;35.80;;;;;;5063220;28;20535;-55
2023/07/25 08:46:08;;;;;;;8.73;3.10;;;36.70;35.80;;;;;;5063540;28;20085;-57
2023/07/25 08:48:38;;;;;;;11.93;3.00;;;36.60;35.50;;;;;;5062883;28;20577;-57
2023/07/25 08:51:08;;;;;;;12.15;3.17;;;36.50;35.40;;;;;;5064570;28;20083;-57
2023/07/25 08:53:45;;;;;;;12.02;3.25;;;36.50;36.10;;;;;;5063446;28;20086;-58
2023/07/25 08:56:13;;;;;;;10.07;3.22;;;36.50;36.40;;;;;;5060185;28;20536;-55
2023/07/25 08:58:44;;;;;;;11.38;3.20;;;36.60;35.90;;;;;;5063104;28;20148;-58
2023/07/25 09:01:10;;;;;;;11.20;3.55;;;36.60;36.00;;;;;;5060561;28;20137;-60
2023/07/25 09:03:39;;;;;;;16.35;3.45;;;36.60;36.60;;;;;;5061603;28;20414;-57
2023/07/25 09:06:06;;;;;;;10.95;3.40;;;36.50;36.20;;;;;;5059738;28;20073;-61
2023/07/25 09:08:33;;;;;;;12.60;3.92;;;36.50;36.50;;;;;;5062664;28;20083;-60
2023/07/25 09:11:00;;;;;;;15.13;3.38;;;36.40;36.30;;;;;;5058287;28;20077;-57
2023/07/25 09:13:26;;;;;;;10.32;3.85;;;36.30;35.80;;;;;;5062482;28;20510;-60
2023/07/25 09:15:53;;;;;;;12.98;3.70;;;36.20;36.20;;;;;;5061565;28;20074;-56
2023/07/25 09:18:20;;;;;;;14.55;4.05;;;36.30;36.80;;;;;;5063577;28;20081;-55
2023/07/25 09:20:47;;;;;;;13.07;3.50;;;36.30;37.40;;;;;;5067517;28;20065;-57
2023/07/25 09:23:21;;;;;;;16.27;3.65;;;36.10;36.90;;;;;;5063977;28;20191;-57
2023/07/25 09:25:48;;;;;;;62.33;5.25;;;36.00;37.40;;;;;;5063409;28;20512;-56
2023/07/25 09:28:14;;;;;;;51.45;7.22;;;36.10;37.30;;;;;;5064717;28;20091;-56
2023/07/25 09:30:50;;;;;;;23.85;4.45;;;36.00;36.70;;;;;;5063465;28;20072;-55
2023/07/25 09:33:27;;;;;;;10.70;4.53;;;36.00;36.40;;;;;;5063038;28;20085;-55
2023/07/25 09:35:54;;;;;;;11.15;4.72;;;35.90;36.50;;;;;;5062704;28;20098;-53
2023/07/25 09:38:21;;;;;;;11.70;4.78;;;35.80;36.50;;;;;;5061482;28;20067;-58
2023/07/25 09:40:48;;;;;;;10.93;4.70;;;35.80;37.60;;;;;;5058876;28;20580;-55
2023/07/25 09:43:25;;;;;;;20.15;6.20;;;35.80;37.40;;;;;;5060353;28;20113;-56
2023/07/25 09:45:53;;;;;;;14.25;4.35;;;35.70;37.10;;;;;;5062359;28;20081;-58
2023/07/25 09:48:20;;;;;;;22.13;4.82;;;35.70;37.30;;;;;;5061437;28;20556;-59
2023/07/25 09:50:47;;;;;;;21.52;4.32;;;35.70;37.20;;;;;;5061308;28;20159;-56
2023/07/25 09:53:17;;;;;;;25.42;5.03;;;35.60;37.20;;;;;;5064998;28;20085;-57
2023/07/25 09:55:45;;;;;;;23.92;4.90;;;35.60;37.30;;;;;;5061547;28;20085;-55
2023/07/25 09:58:12;;;;;;;20.48;5.13;;;35.60;37.30;;;;;;5059820;28;20106;-56
2023/07/25 10:00:40;;;;;;;22.42;4.72;;;35.60;37.40;;;;;;5062550;28;20103;-59
2023/07/25 10:03:11;;;;;;;18.52;5.60;;;35.70;38.90;;;;;;5063801;28;20452;-62
2023/07/25 10:05:43;;;;;;;23.83;5.20;;;35.70;37.90;;;;;;5062945;28;20973;-57
2023/07/25 10:08:11;;;;;;;23.40;5.13;;;35.60;37.70;;;;;;5062770;28;20071;-59
2023/07/25 10:10:40;;;;;;;23.90;5.63;;;35.60;39.60;;;;;;5059576;28;20072;-56
2023/07/25 10:13:07;;;;;;;26.05;5.28;;;35.50;39.20;;;;;;5062450;28;20133;-58
2023/07/25 10:15:34;;;;;;;20.80;5.13;;;35.40;39.30;;;;;;5062291;28;20070;-55
2023/07/25 10:18:04;;;;;;;22.33;5.30;;;35.30;39.60;;;;;;5062897;28;20098;-59
2023/07/25 10:20:31;;;;;;;18.48;5.18;;;35.30;40.00;;;;;;5061583;28;20085;-57
2023/07/25 10:23:11;;;;;;;26.38;6.47;;;35.20;40.40;;;;;;5061362;28;20694;-57
2023/07/25 10:25:37;;;;;;;27.65;6.30;;;35.20;40.30;;;;;;5059894;28;20103;-59
2023/07/25 10:28:04;;;;;;;23.52;5.13;;;35.10;40.10;;;;;;5060902;28;20083;-58
2023/07/25 10:30:39;;;;;;;17.80;4.88;;;35.10;40.40;;;;;;5058300;28;20073;-55
2023/07/25 10:33:07;;;;;;;21.90;5.43;;;35.00;41.60;;;;;;5061021;28;20075;-57
2023/07/25 10:35:52;;;;;;;20.63;6.30;;;35.00;41.90;;;;;;5061989;28;20625;-59
2023/07/25 10:38:45;;;;;;;17.60;5.68;;;34.90;42.30;;;;;;5062193;28;20098;-58
2023/07/25 10:41:21;;;;;;;27.27;6.28;;;34.80;41.60;;;;;;5060430;28;20594;-58
2023/07/25 10:43:55;;;;;;;25.15;5.38;;;34.80;41.30;;;;;;5063172;28;20083;-53
2023/07/25 10:46:25;;;;;;;21.17;5.65;;;34.70;41.50;;;;;;5062870;28;20122;-54
2023/07/25 10:48:54;;;;;;;23.02;5.03;;;34.70;41.60;;;;;;5061215;28;20106;-56
2023/07/25 10:51:21;;;;;;;33.45;6.35;;;34.70;41.80;;;;;;5060023;28;20096;-55
2023/07/25 10:54:24;;;;;;;29.17;6.45;;;34.70;42.10;;;;;;5059351;28;20598;-56
2023/07/25 10:57:20;;;;;;;21.45;6.63;;;34.70;42.80;;;;;;4991680;28;20693;-53
2023/07/25 11:00:01;;;;;;;21.45;6.53;;;34.60;43.00;;;;;;4992549;28;20093;-53
2023/07/25 11:02:34;;;;;;;27.33;6.57;;;34.60;43.90;;;;;;4989903;28;20096;-56
2023/07/25 11:05:13;;;;;;;28.05;6.95;;;34.50;44.10;;;;;;4996156;28;20109;-57
2023/07/25 11:07:39;;;;;;;40.03;7.50;;;34.50;43.90;;;;;;4994370;28;20232;-57
2023/07/25 11:10:07;;;;;;;23.65;7.35;;;34.40;43.90;;;;;;4994447;28;20124;-58
2023/07/25 11:12:34;;;;;;;33.28;8.18;;;34.40;45.50;;;;;;4992941;28;20441;-60
2023/07/25 11:15:01;;;;;;;25.17;6.70;;;34.30;45.30;;;;;;4993290;28;20086;-57
2023/07/25 11:17:28;;;;;;;35.47;7.63;;;34.30;45.50;;;;;;4993169;28;20105;-55
2023/07/25 11:20:09;;;;;;;32.20;7.45;;;34.20;45.30;;;;;;4992484;28;20097;-57
2023/07/25 11:22:36;;;;;;;25.58;6.93;;;34.20;46.70;;;;;;4991314;28;20086;-56
2023/07/25 11:25:07;;;;;;;28.02;7.60;;;34.10;46.00;;;;;;4991280;28;20099;-59
2023/07/25 11:27:39;;;;;;;21.30;7.15;;;34.10;46.20;;;;;;4993647;28;20205;-58
2023/07/25 11:30:16;;;;;;;19.67;6.38;;;34.10;46.50;;;;;;4995983;28;20189;-57
2023/07/25 11:32:50;;;;;;;15.63;6.35;;;34.10;46.60;;;;;;5039905;28;20100;-55
2023/07/25 11:35:17;;;;;;;23.33;6.32;;;34.10;45.20;;;;;;5062161;28;20106;-60
2023/07/25 11:37:44;;;;;;;25.35;5.70;;;34.10;45.30;;;;;;5064245;28;20100;-56
2023/07/25 11:40:13;;;;;;;20.52;5.60;;;34.00;45.40;;;;;;5064532;28;20068;-57
2023/07/25 11:42:44;;;;;;;16.50;5.53;;;34.00;44.70;;;;;;5064482;28;20072;-56
2023/07/25 11:45:13;;;;;;;14.48;5.30;;;34.00;45.30;;;;;;5066002;28;20084;-58
2023/07/25 11:47:42;;;;;;;22.10;5.15;;;34.00;46.00;;;;;;5064642;28;20087;-56
2023/07/25 11:50:10;;;;;;;14.63;5.78;;;33.90;45.40;;;;;;5063564;28;20166;-54
2023/07/25 11:52:43;;;;;;;15.38;5.15;;;33.90;46.70;;;;;;5062519;28;20101;-54
2023/07/25 11:55:11;;;;;;;16.60;5.40;;;33.90;46.60;;;;;;5064228;28;20095;-57
2023/07/25 11:57:40;;;;;;;20.60;5.70;;;33.80;46.90;;;;;;5061208;28;20127;-53
2023/07/25 12:00:09;;;;;;;15.43;6.05;;;33.80;47.30;;;;;;5062505;28;20168;-55
2023/07/25 12:02:37;;;;;;;19.42;5.55;;;33.80;48.00;;;;;;5062974;28;20217;-58
2023/07/25 12:05:04;;;;;;;23.50;5.70;;;33.90;47.70;;;;;;5062259;28;20086;-55
2023/07/25 12:07:58;;;;;;;20.58;6.60;;;33.90;47.50;;;;;;5062763;28;20145;-55
2023/07/25 12:10:35;;;;;;;16.17;6.43;;;33.90;47.30;;;;;;5058173;28;20100;-56
2023/07/25 12:13:03;;;;;;;16.48;5.15;;;34.00;47.50;;;;;;5065724;28;20091;-57
2023/07/25 12:15:43;;;;;;;19.98;5.80;;;34.00;49.00;;;;;;5065681;28;20076;-58
2023/07/25 12:18:29;;;;;;;22.13;5.40;;;34.00;49.00;;;;;;5066282;28;20528;-55
2023/07/25 12:20:57;;;;;;;21.53;5.33;;;34.00;49.20;;;;;;5062168;28;20112;-56
2023/07/25 12:23:30;;;;;;;23.52;6.32;;;34.00;49.60;;;;;;5063622;28;20323;-54
2023/07/25 12:25:59;;;;;;;21.77;5.47;;;34.10;50.00;;;;;;5061871;28;20111;-58
2023/07/25 12:28:37;;;;;;;24.00;6.35;;;34.10;50.20;;;;;;5061962;28;20088;-57
2023/07/25 12:31:04;;;;;;;296.67;18.13;;;34.10;50.40;;;;;;5064324;28;20089;-57
2023/07/25 12:33:30;;;;;;;290.83;17.45;;;34.10;50.60;;;;;;5062110;28;20119;-57
2023/07/25 12:35:57;;;;;;;39.88;7.90;;;34.20;50.90;;;;;;5064130;28;20099;-52
2023/07/25 12:38:24;;;;;;;28.83;6.43;;;34.10;51.30;;;;;;5062092;28;20076;-58
2023/07/25 12:40:50;;;;;;;25.52;6.75;;;34.10;51.80;;;;;;5064874;28;20167;-57
2023/07/25 12:43:17;;;;;;;28.38;7.13;;;34.10;52.00;;;;;;5063918;28;20644;-54